Aeroporto :
LOGIN :

Iscrizione | Disclaimer

   EN    FR    IT 

 










Sommario :    VFR   VFR Marginale   IFR   IFR Intensivo   IFR Molto Intensivo
Visibilità : 
Base nubi : 
>= 8 km
>= 3000ft
5 / 8 km
1000 / 3000 ft
1500m / 5 km
500 / 1000 ft
800 / 1500m
200 / 500 ft
< 800m
< 200 ft
Simboli :   Temporali  Nebbia  Neve Forte  Precipitazioni Forti  Vento > 20 kt
SIGMETs :   Varie  Temporali  Ghiacco  Turbolenza  Onda orograficha  Ceneri Vulcaniche







- Altitudine del aeroporto : 302 ft
- Codice IATA : CGN


EDDK - Cologne Bonn

ULTIMO METAR :
  • 250820Z 14006KT 100V180 9999 SCT017 20/15 Q1018 NOSIG

METARs OBSOLETI :
  • 250750Z 15006KT 100V190 9999 SCT014 20/15 Q1018 NOSIG
  • 250720Z 15006KT 110V190 9999 FEW012 19/15 Q1018 NOSIG
  • 250650Z 14006KT 100V170 9999 SCT009 18/15 Q1018 NOSIG
  • 250620Z 16008KT 130V190 9999 BKN009 17/15 Q1018 TEMPO BKN012
  • 250550Z 14007KT 9999 FEW008 17/15 Q1018 NOSIG

TAF TAF EDDK
Valido dal 25 a 06 ore il 26 a 12 ore UTC


250500Z 2506/2612 11005KT 9999 SCT030
Nessun NOTAM noto per questo aeroporto.



MetMap, La meteo Aeronautica in un colpo d'occhio ! - Copyright ORBIFLY Dicembre 2007 - Disclaimer

ORBIFLY MET'MAP TEAM :

Programmazione e sviluppo : Alexandra Zaïnal
Concezione e sviluppo : Baudouin d'Aumeries
Co-Programmazione e sviluppo : Marc-Olivier Méhu
Supporto tecnico e logistico : Manuel Goepfert
Aiuto per la traduzione : Arnaldo La Scala

Contatto : metmap@orbifly.com




FONTI E CREDITI :

   NOAA